createdAt,value
2023-05-20T00:00:54.465Z,94541.00
2023-05-20T00:01:54.509Z,94539.00
2023-05-20T00:02:54.664Z,94541.00
2023-05-20T00:03:54.731Z,94543.00
2023-05-20T00:04:54.771Z,94545.00
2023-05-20T00:05:54.788Z,94545.00
2023-05-20T00:06:54.821Z,94543.00
2023-05-20T00:07:54.881Z,94545.00
2023-05-20T00:08:54.956Z,94545.00
2023-05-20T00:09:55.029Z,94541.00
2023-05-20T00:10:55.089Z,94545.00
2023-05-20T00:11:55.146Z,94539.00
2023-05-20T00:12:55.191Z,94539.00
2023-05-20T00:13:55.193Z,94539.00
2023-05-20T00:14:56.022Z,94539.00
2023-05-20T00:15:55.242Z,94533.00
2023-05-20T00:16:55.376Z,94531.00
2023-05-20T00:17:55.321Z,94529.00
2023-05-20T00:18:55.305Z,94531.00
2023-05-20T00:19:55.302Z,94529.00
2023-05-20T00:20:55.377Z,94531.00
2023-05-20T00:21:55.366Z,94531.00
2023-05-20T00:22:55.489Z,94531.00
2023-05-20T00:23:55.421Z,94529.00
2023-05-20T00:24:55.430Z,94529.00
2023-05-20T00:25:55.969Z,94525.00
2023-05-20T00:26:55.505Z,94523.00
2023-05-20T00:27:55.542Z,94521.00
2023-05-20T00:28:55.535Z,94517.00
2023-05-20T00:29:55.578Z,94517.00
2023-05-20T00:30:55.656Z,94513.00
2023-05-20T00:31:55.739Z,94510.00
2023-05-20T00:32:55.771Z,94508.00
2023-05-20T00:33:55.829Z,94506.00
2023-05-20T00:34:55.889Z,94506.00
2023-05-20T00:35:55.934Z,94504.00
2023-05-20T00:36:56.043Z,94508.00
2023-05-20T00:37:56.090Z,94504.00
2023-05-20T00:38:56.097Z,94498.00
2023-05-20T00:39:56.152Z,94496.00
2023-05-20T00:40:56.330Z,94494.00
2023-05-20T00:41:56.348Z,94492.00
2023-05-20T00:42:56.245Z,94494.00
2023-05-20T00:43:56.284Z,94496.00
2023-05-20T00:44:56.271Z,94498.00
2023-05-20T00:45:56.397Z,94498.00
2023-05-20T00:46:56.335Z,94498.00
2023-05-20T00:47:56.525Z,94500.00
2023-05-20T00:48:56.416Z,94500.00
2023-05-20T00:49:56.460Z,94500.00
2023-05-20T00:50:56.490Z,94502.00
2023-05-20T00:51:56.519Z,94502.00
2023-05-20T00:52:56.571Z,94502.00
2023-05-20T00:53:56.656Z,94504.00
2023-05-20T00:54:56.702Z,94506.00
2023-05-20T00:55:56.759Z,94510.00
2023-05-20T00:56:56.845Z,94510.00
2023-05-20T00:57:56.896Z,94511.00
2023-05-20T00:58:56.909Z,94510.00
2023-05-20T00:59:56.941Z,94511.00
2023-05-20T01:00:57.015Z,94515.00
2023-05-20T01:01:57.005Z,94515.00
2023-05-20T01:02:57.145Z,94513.00
2023-05-20T01:03:57.040Z,94517.00
2023-05-20T01:04:57.064Z,94515.00
2023-05-20T01:05:57.066Z,94513.00
2023-05-20T01:06:57.099Z,94513.00
2023-05-20T01:07:57.212Z,94513.00
2023-05-20T01:08:57.182Z,94515.00
2023-05-20T01:09:57.224Z,94515.00
2023-05-20T01:10:57.280Z,94519.00
2023-05-20T01:11:57.352Z,94519.00
2023-05-20T01:12:57.447Z,94515.00
2023-05-20T01:13:57.489Z,94517.00
2023-05-20T01:14:57.556Z,94517.00
2023-05-20T01:15:57.628Z,94519.00
2023-05-20T01:16:57.667Z,94521.00
2023-05-20T01:17:57.809Z,94521.00
2023-05-20T01:18:57.770Z,94525.00
2023-05-20T01:19:57.757Z,94525.00
2023-05-20T01:20:57.770Z,94527.00
2023-05-20T01:21:58.009Z,94529.00
2023-05-20T01:22:58.005Z,94525.00
2023-05-20T01:23:58.014Z,94523.00
2023-05-20T01:24:58.070Z,94523.00
2023-05-20T01:25:58.177Z,94517.00
2023-05-20T01:26:58.053Z,94519.00
2023-05-20T01:27:58.170Z,94517.00
2023-05-20T01:28:58.186Z,94519.00
2023-05-20T01:29:58.149Z,94519.00
2023-05-20T01:30:58.193Z,94515.00
2023-05-20T01:31:58.169Z,94515.00
2023-05-20T01:32:58.281Z,94515.00
2023-05-20T01:33:58.564Z,94517.00
2023-05-20T01:34:58.246Z,94517.00
2023-05-20T01:35:58.268Z,94517.00
2023-05-20T01:36:58.298Z,94515.00
2023-05-20T01:37:58.358Z,94517.00
2023-05-20T01:38:58.348Z,94515.00
2023-05-20T01:39:58.386Z,94515.00
2023-05-20T01:40:58.441Z,94511.00
2023-05-20T01:41:58.500Z,94511.00
2023-05-20T01:42:58.509Z,94511.00
2023-05-20T01:43:58.542Z,94511.00
2023-05-20T01:44:58.561Z,94515.00
2023-05-20T01:45:58.578Z,94515.00
2023-05-20T01:46:58.699Z,94515.00
2023-05-20T01:47:58.649Z,94517.00
2023-05-20T01:48:58.622Z,94517.00
2023-05-20T01:49:58.648Z,94517.00
2023-05-20T01:50:58.722Z,94519.00
2023-05-20T01:51:58.747Z,94521.00
2023-05-20T01:52:58.775Z,94521.00
2023-05-20T01:53:58.789Z,94523.00
2023-05-20T01:54:58.830Z,94521.00
2023-05-20T01:55:58.884Z,94519.00
2023-05-20T01:56:58.898Z,94521.00
2023-05-20T01:57:58.939Z,94519.00
2023-05-20T01:58:58.954Z,94525.00
2023-05-20T01:59:58.960Z,94521.00
2023-05-20T02:00:59.118Z,94519.00
2023-05-20T02:01:59.038Z,94519.00
2023-05-20T02:02:59.084Z,94515.00
2023-05-20T02:03:59.078Z,94515.00
2023-05-20T02:04:59.122Z,94515.00
2023-05-20T02:05:59.196Z,94513.00
2023-05-20T02:06:59.206Z,94513.00
2023-05-20T02:07:59.238Z,94513.00
2023-05-20T02:08:59.302Z,94517.00
2023-05-20T02:09:59.324Z,94515.00
2023-05-20T02:10:59.347Z,94517.00
2023-05-20T02:11:59.366Z,94521.00
2023-05-20T02:12:59.420Z,94523.00
2023-05-20T02:13:59.457Z,94521.00
2023-05-20T02:14:59.497Z,94519.00
2023-05-20T02:15:59.518Z,94519.00
2023-05-20T02:16:59.625Z,94521.00
2023-05-20T02:17:59.633Z,94525.00
2023-05-20T02:18:59.662Z,94519.00
2023-05-20T02:19:59.892Z,94521.00
2023-05-20T02:20:59.711Z,94523.00
2023-05-20T02:21:59.817Z,94523.00
2023-05-20T02:22:59.806Z,94517.00
2023-05-20T02:23:59.853Z,94515.00
2023-05-20T02:24:59.902Z,94515.00
2023-05-20T02:25:59.901Z,94513.00
2023-05-20T02:26:59.923Z,94513.00
2023-05-20T02:27:59.947Z,94513.00
2023-05-20T02:29:00.155Z,94511.00
2023-05-20T02:29:59.958Z,94511.00
2023-05-20T02:30:59.950Z,94511.00
2023-05-20T02:31:59.981Z,94510.00
2023-05-20T02:33:00.036Z,94510.00
2023-05-20T02:34:00.028Z,94510.00
2023-05-20T02:34:59.998Z,94510.00
2023-05-20T02:35:59.988Z,94511.00
2023-05-20T02:36:59.988Z,94506.00
2023-05-20T02:37:59.984Z,94510.00
2023-05-20T02:39:00.128Z,94513.00
2023-05-20T02:40:00.019Z,94508.00
2023-05-20T02:41:00.053Z,94508.00
2023-05-20T02:42:00.068Z,94511.00
2023-05-20T02:43:00.129Z,94508.00
2023-05-20T02:44:00.098Z,94508.00
2023-05-20T02:45:00.113Z,94508.00
2023-05-20T02:46:00.211Z,94506.00
2023-05-20T02:47:00.143Z,94504.00
2023-05-20T02:48:00.276Z,94506.00
2023-05-20T02:49:00.175Z,94504.00
2023-05-20T02:50:00.204Z,94504.00
2023-05-20T02:51:00.226Z,94506.00
2023-05-20T02:52:00.255Z,94506.00
2023-05-20T02:53:00.271Z,94506.00
2023-05-20T02:54:00.307Z,94506.00
2023-05-20T02:55:00.354Z,94504.00
2023-05-20T02:56:00.331Z,94506.00
2023-05-20T02:57:00.355Z,94506.00
2023-05-20T02:58:00.342Z,94508.00
2023-05-20T02:59:00.326Z,94510.00
2023-05-20T03:00:00.338Z,94508.00
2023-05-20T03:01:00.356Z,94506.00
2023-05-20T03:02:00.476Z,94506.00
2023-05-20T03:03:00.336Z,94508.00
2023-05-20T03:04:00.390Z,94506.00
2023-05-20T03:05:00.325Z,94508.00
2023-05-20T03:06:00.323Z,94510.00
2023-05-20T03:07:00.314Z,94504.00
2023-05-20T03:08:00.364Z,94506.00
2023-05-20T03:09:00.370Z,94506.00
2023-05-20T03:10:00.393Z,94508.00
2023-05-20T03:11:00.429Z,94510.00
2023-05-20T03:12:00.424Z,94506.00
2023-05-20T03:13:00.405Z,94510.00
2023-05-20T03:14:00.398Z,94506.00
2023-05-20T03:15:00.418Z,94506.00
2023-05-20T03:16:00.461Z,94510.00
2023-05-20T03:17:00.485Z,94510.00
2023-05-20T03:18:00.543Z,94506.00
2023-05-20T03:19:00.539Z,94506.00
2023-05-20T03:20:00.498Z,94510.00
2023-05-20T03:21:00.501Z,94510.00
2023-05-20T03:22:00.499Z,94510.00
2023-05-20T03:23:00.518Z,94511.00
2023-05-20T03:24:00.536Z,94510.00
2023-05-20T03:25:00.580Z,94506.00
2023-05-20T03:26:00.577Z,94500.00
2023-05-20T03:27:00.614Z,94496.00
2023-05-20T03:28:00.660Z,94496.00
2023-05-20T03:29:00.674Z,94496.00
2023-05-20T03:30:00.689Z,94494.00
2023-05-20T03:31:00.804Z,94494.00
2023-05-20T03:32:00.774Z,94494.00
2023-05-20T03:33:00.854Z,94490.00
2023-05-20T03:34:00.850Z,94488.00
2023-05-20T03:35:00.888Z,94488.00
2023-05-20T03:36:00.956Z,94482.00
2023-05-20T03:37:00.962Z,94482.00
2023-05-20T03:38:01.055Z,94484.00
2023-05-20T03:39:01.056Z,94482.00
2023-05-20T03:40:01.089Z,94484.00
2023-05-20T03:41:01.133Z,94482.00
2023-05-20T03:42:01.204Z,94482.00
2023-05-20T03:43:01.345Z,94480.00
2023-05-20T03:44:01.283Z,94478.00
2023-05-20T03:45:01.413Z,94478.00
2023-05-20T03:46:01.355Z,94480.00
2023-05-20T03:47:01.440Z,94478.00
2023-05-20T03:48:01.452Z,94480.00
2023-05-20T03:49:01.429Z,94482.00
2023-05-20T03:50:01.487Z,94480.00
2023-05-20T03:51:01.516Z,94484.00
2023-05-20T03:52:01.492Z,94478.00
2023-05-20T03:53:01.516Z,94480.00
2023-05-20T03:54:01.720Z,94478.00
2023-05-20T03:55:01.576Z,94478.00
2023-05-20T03:56:01.602Z,94478.00
2023-05-20T03:57:01.644Z,94474.00
2023-05-20T03:58:01.680Z,94478.00
2023-05-20T03:59:01.712Z,94474.00
2023-05-20T04:00:01.745Z,94476.00
2023-05-20T04:01:01.802Z,94478.00
2023-05-20T04:02:01.899Z,94478.00
2023-05-20T04:03:01.948Z,94476.00
2023-05-20T04:04:01.918Z,94476.00
2023-05-20T04:05:01.931Z,94474.00
2023-05-20T04:06:01.938Z,94476.00
2023-05-20T04:07:01.955Z,94478.00
2023-05-20T04:08:01.976Z,94478.00
2023-05-20T04:09:01.952Z,94476.00
2023-05-20T04:10:01.940Z,94476.00
2023-05-20T04:11:01.962Z,94480.00
2023-05-20T04:12:01.953Z,94480.00
2023-05-20T04:13:01.983Z,94478.00
2023-05-20T04:14:01.984Z,94480.00
2023-05-20T04:15:02.020Z,94482.00
2023-05-20T04:16:02.038Z,94482.00
2023-05-20T04:17:02.070Z,94482.00
2023-05-20T04:18:02.082Z,94484.00
2023-05-20T04:19:02.076Z,94490.00
2023-05-20T04:20:02.066Z,94490.00
2023-05-20T04:21:02.097Z,94492.00
2023-05-20T04:22:02.135Z,94490.00
2023-05-20T04:23:02.175Z,94492.00
2023-05-20T04:24:02.178Z,94490.00
2023-05-20T04:25:02.239Z,94490.00
2023-05-20T04:26:02.291Z,94492.00
2023-05-20T04:27:02.220Z,94490.00
2023-05-20T04:28:02.230Z,94490.00
2023-05-20T04:29:02.262Z,94488.00
2023-05-20T04:30:02.325Z,94488.00
2023-05-20T04:31:02.394Z,94488.00
2023-05-20T04:32:02.484Z,94486.00
2023-05-20T04:33:02.726Z,94484.00
2023-05-20T04:34:02.487Z,94488.00
2023-05-20T04:35:02.495Z,94488.00
2023-05-20T04:36:02.532Z,94486.00
2023-05-20T04:37:02.566Z,94490.00
2023-05-20T04:38:02.568Z,94494.00
2023-05-20T04:39:02.632Z,94496.00
2023-05-20T04:40:02.640Z,94496.00
2023-05-20T04:41:02.715Z,94494.00
2023-05-20T04:42:02.765Z,94496.00
2023-05-20T04:43:02.811Z,94494.00
2023-05-20T04:44:02.828Z,94496.00
2023-05-20T04:45:02.870Z,94496.00
2023-05-20T04:46:02.984Z,94496.00
2023-05-20T04:47:02.945Z,94496.00
2023-05-20T04:48:03.085Z,94496.00
2023-05-20T04:49:03.032Z,94500.00
2023-05-20T04:50:03.115Z,94498.00
2023-05-20T04:51:03.181Z,94500.00
2023-05-20T04:52:03.224Z,94498.00
2023-05-20T04:53:03.290Z,94496.00
2023-05-20T04:54:03.350Z,94498.00
2023-05-20T04:55:03.409Z,94498.00
2023-05-20T04:56:03.552Z,94496.00
2023-05-20T04:57:03.522Z,94500.00
2023-05-20T04:58:03.596Z,94502.00
2023-05-20T04:59:03.636Z,94498.00
2023-05-20T05:00:03.713Z,94498.00
2023-05-20T05:01:03.783Z,94500.00
2023-05-20T05:02:03.797Z,94500.00
2023-05-20T05:03:03.836Z,94500.00
2023-05-20T05:04:03.843Z,94502.00
2023-05-20T05:05:04.009Z,94502.00
2023-05-20T05:06:03.907Z,94502.00
2023-05-20T05:07:03.952Z,94500.00
2023-05-20T05:08:03.972Z,94502.00
2023-05-20T05:09:04.019Z,94500.00
2023-05-20T05:10:03.997Z,94502.00
2023-05-20T05:11:04.022Z,94504.00
2023-05-20T05:12:04.039Z,94502.00
2023-05-20T05:13:04.030Z,94502.00
2023-05-20T05:14:04.060Z,94504.00
2023-05-20T05:15:04.061Z,94500.00
2023-05-20T05:16:04.076Z,94502.00
2023-05-20T05:17:04.063Z,94500.00
2023-05-20T05:18:04.166Z,94498.00
2023-05-20T05:19:04.120Z,94498.00
2023-05-20T05:20:04.083Z,94492.00
2023-05-20T05:21:04.086Z,94494.00
2023-05-20T05:22:04.080Z,94492.00
2023-05-20T05:23:04.072Z,94492.00
2023-05-20T05:24:04.083Z,94490.00
2023-05-20T05:25:04.076Z,94492.00
2023-05-20T05:26:04.061Z,94492.00
2023-05-20T05:27:04.104Z,94494.00
2023-05-20T05:28:04.126Z,94492.00
2023-05-20T05:29:04.149Z,94490.00
2023-05-20T05:30:04.184Z,94490.00
2023-05-20T05:31:04.198Z,94490.00
2023-05-20T05:32:04.283Z,94490.00
2023-05-20T05:33:04.375Z,94490.00
2023-05-20T05:34:04.311Z,94488.00
2023-05-20T05:35:06.682Z,94486.00
2023-05-20T05:36:04.358Z,94486.00
2023-05-20T05:37:04.353Z,94484.00
2023-05-20T05:38:04.340Z,94484.00
2023-05-20T05:39:04.345Z,94486.00
2023-05-20T05:40:04.321Z,94484.00
2023-05-20T05:41:04.306Z,94488.00
2023-05-20T05:42:04.311Z,94484.00
2023-05-20T05:43:04.329Z,94480.00
2023-05-20T05:44:04.291Z,94478.00
2023-05-20T05:45:04.284Z,94482.00
2023-05-20T05:46:04.265Z,94482.00
2023-05-20T05:47:04.354Z,94478.00
2023-05-20T05:48:04.325Z,94480.00
2023-05-20T05:49:04.271Z,94482.00
2023-05-20T05:50:04.252Z,94484.00
2023-05-20T05:51:04.254Z,94480.00
2023-05-20T05:52:04.303Z,94480.00
2023-05-20T05:53:04.242Z,94480.00
2023-05-20T05:54:04.230Z,94480.00
2023-05-20T05:55:04.208Z,94478.00
2023-05-20T05:56:04.204Z,94482.00
2023-05-20T05:57:05.859Z,94488.00
2023-05-20T05:58:04.184Z,94486.00
2023-05-20T05:59:04.179Z,94490.00
2023-05-20T06:00:04.222Z,94490.00
2023-05-20T06:01:04.290Z,94490.00
2023-05-20T06:02:04.426Z,94490.00
2023-05-20T06:03:04.482Z,94488.00
2023-05-20T06:04:04.503Z,94486.00
2023-05-20T06:05:04.561Z,94484.00
2023-05-20T06:06:04.537Z,94486.00
2023-05-20T06:07:04.574Z,94490.00
2023-05-20T06:08:04.656Z,94488.00
2023-05-20T06:09:04.606Z,94490.00
2023-05-20T06:10:04.627Z,94490.00
2023-05-20T06:11:04.690Z,94490.00
2023-05-20T06:12:04.717Z,94490.00
2023-05-20T06:13:04.795Z,94492.00
2023-05-20T06:14:04.875Z,94490.00
2023-05-20T06:15:04.920Z,94488.00
2023-05-20T06:16:04.911Z,94488.00
2023-05-20T06:17:04.959Z,94484.00
2023-05-20T06:18:05.033Z,94486.00
2023-05-20T06:19:05.125Z,94486.00
2023-05-20T06:20:05.058Z,94486.00
2023-05-20T06:21:05.071Z,94490.00
2023-05-20T06:22:05.121Z,94490.00
2023-05-20T06:23:05.152Z,94492.00
2023-05-20T06:24:05.372Z,94492.00
2023-05-20T06:25:05.339Z,94492.00
2023-05-20T06:26:05.372Z,94490.00
2023-05-20T06:27:05.312Z,94490.00
2023-05-20T06:28:05.374Z,94492.00
2023-05-20T06:29:05.449Z,94490.00
2023-05-20T06:30:05.483Z,94490.00
2023-05-20T06:31:05.617Z,94490.00
2023-05-20T06:32:05.585Z,94484.00
2023-05-20T06:33:05.708Z,94486.00
2023-05-20T06:34:05.666Z,94488.00
2023-05-20T06:35:05.668Z,94486.00
2023-05-20T06:36:05.709Z,94484.00
2023-05-20T06:37:05.732Z,94486.00
2023-05-20T06:38:05.904Z,94482.00
2023-05-20T06:39:05.867Z,94482.00
2023-05-20T06:40:05.942Z,94484.00
2023-05-20T06:41:05.966Z,94484.00
2023-05-20T06:42:06.032Z,94482.00
2023-05-20T06:43:06.053Z,94482.00
2023-05-20T06:44:06.122Z,94486.00
2023-05-20T06:45:06.149Z,94480.00
2023-05-20T06:46:06.224Z,94480.00
2023-05-20T06:47:06.218Z,94478.00
2023-05-20T06:48:06.311Z,94474.00
2023-05-20T06:49:06.271Z,94472.00
2023-05-20T06:50:06.352Z,94478.00
2023-05-20T06:51:06.331Z,94470.00
2023-05-20T06:52:06.373Z,94472.00
2023-05-20T06:53:06.388Z,94470.00
2023-05-20T06:54:06.438Z,94468.00
2023-05-20T06:55:06.461Z,94466.00
2023-05-20T06:56:06.464Z,94463.00
2023-05-20T06:57:06.647Z,94464.00
2023-05-20T06:58:06.518Z,94464.00
2023-05-20T06:59:06.532Z,94464.00
2023-05-20T07:00:06.554Z,94459.00
2023-05-20T07:01:06.569Z,94457.00
2023-05-20T07:02:06.849Z,94459.00
2023-05-20T07:03:06.642Z,94457.00
2023-05-20T07:04:06.611Z,94453.00
2023-05-20T07:05:06.597Z,94455.00
2023-05-20T07:06:06.617Z,94453.00
2023-05-20T07:07:06.644Z,94451.00
2023-05-20T07:08:06.708Z,94453.00
2023-05-20T07:09:06.777Z,94453.00
2023-05-20T07:10:06.798Z,94445.00
2023-05-20T07:11:06.827Z,94441.00
2023-05-20T07:12:06.850Z,94443.00
2023-05-20T07:13:06.836Z,94441.00
2023-05-20T07:14:06.828Z,94439.00
2023-05-20T07:15:06.885Z,94439.00
2023-05-20T07:16:06.923Z,94435.00
2023-05-20T07:17:06.913Z,94435.00
2023-05-20T07:18:06.995Z,94433.00
2023-05-20T07:19:06.961Z,94431.00
2023-05-20T07:20:06.976Z,94431.00
2023-05-20T07:21:07.055Z,94427.00
2023-05-20T07:22:07.069Z,94425.00
2023-05-20T07:23:07.118Z,94429.00
2023-05-20T07:24:07.125Z,94425.00
2023-05-20T07:25:07.151Z,94425.00
2023-05-20T07:26:07.188Z,94427.00
2023-05-20T07:27:07.220Z,94421.00
2023-05-20T07:28:07.227Z,94425.00
2023-05-20T07:29:07.292Z,94421.00
2023-05-20T07:30:07.302Z,94425.00
2023-05-20T07:31:07.336Z,94423.00
2023-05-20T07:32:07.389Z,94419.00
2023-05-20T07:33:07.371Z,94414.00
2023-05-20T07:34:07.349Z,94412.00
2023-05-20T07:35:07.379Z,94408.00
2023-05-20T07:36:09.107Z,94406.00
2023-05-20T07:37:07.352Z,94406.00
2023-05-20T07:38:07.359Z,94404.00
2023-05-20T07:39:11.711Z,94402.00
2023-05-20T07:40:08.329Z,94404.00
2023-05-20T07:41:07.338Z,94400.00
2023-05-20T07:42:07.465Z,94396.00
2023-05-20T07:43:07.320Z,94396.00
2023-05-20T07:44:07.327Z,94392.00
2023-05-20T07:45:07.295Z,94392.00
2023-05-20T07:46:07.361Z,94392.00
2023-05-20T07:47:07.271Z,94398.00
2023-05-20T07:48:07.399Z,94400.00
2023-05-20T07:49:07.288Z,94392.00
2023-05-20T07:50:07.263Z,94392.00
2023-05-20T07:51:07.262Z,94390.00
2023-05-20T07:52:07.290Z,94390.00
2023-05-20T07:53:07.337Z,94388.00
2023-05-20T07:54:07.341Z,94388.00
2023-05-20T07:55:07.371Z,94388.00
2023-05-20T07:56:07.439Z,94386.00
2023-05-20T07:57:07.547Z,94388.00
2023-05-20T07:58:07.511Z,94392.00
2023-05-20T07:59:07.534Z,94388.00
2023-05-20T08:00:07.547Z,94396.00
2023-05-20T08:01:07.577Z,94394.00
2023-05-20T08:02:07.689Z,94390.00
2023-05-20T08:03:07.905Z,94388.00
2023-05-20T08:04:07.797Z,94390.00
2023-05-20T08:05:07.788Z,94390.00
2023-05-20T08:06:07.722Z,94390.00
2023-05-20T08:07:07.767Z,94394.00
2023-05-20T08:08:07.778Z,94392.00
2023-05-20T08:09:07.784Z,94390.00
2023-05-20T08:10:07.802Z,94390.00
2023-05-20T08:11:07.822Z,94386.00
2023-05-20T08:12:07.871Z,94376.00
2023-05-20T08:13:07.874Z,94378.00
2023-05-20T08:14:07.953Z,94376.00
2023-05-20T08:15:07.941Z,94376.00
2023-05-20T08:16:07.982Z,94374.00
2023-05-20T08:17:08.111Z,94371.00
2023-05-20T08:18:08.126Z,94371.00
2023-05-20T08:19:08.249Z,94369.00
2023-05-20T08:20:08.214Z,94363.00
2023-05-20T08:21:08.271Z,94361.00
2023-05-20T08:22:08.351Z,94361.00
2023-05-20T08:23:08.438Z,94357.00
2023-05-20T08:24:08.417Z,94357.00
2023-05-20T08:25:08.571Z,94363.00
2023-05-20T08:26:08.444Z,94363.00
2023-05-20T08:27:08.443Z,94367.00
2023-05-20T08:28:08.560Z,94365.00
2023-05-20T08:29:08.577Z,94363.00
2023-05-20T08:30:08.652Z,94361.00
2023-05-20T08:31:08.726Z,94363.00
2023-05-20T08:32:08.714Z,94359.00
2023-05-20T08:33:08.940Z,94355.00
2023-05-20T08:34:08.818Z,94351.00
2023-05-20T08:35:08.848Z,94349.00
2023-05-20T08:36:08.901Z,94351.00
2023-05-20T08:37:08.891Z,94347.00
2023-05-20T08:38:08.924Z,94347.00
2023-05-20T08:39:08.933Z,94345.00
2023-05-20T08:40:08.983Z,94347.00
2023-05-20T08:41:08.998Z,94345.00
2023-05-20T08:42:09.022Z,94347.00
2023-05-20T08:43:09.026Z,94345.00
2023-05-20T08:44:09.070Z,94341.00
2023-05-20T08:45:09.063Z,94343.00
2023-05-20T08:46:09.084Z,94339.00
2023-05-20T08:47:09.186Z,94339.00
2023-05-20T08:48:09.122Z,94337.00
2023-05-20T08:49:09.116Z,94335.00
2023-05-20T08:50:09.136Z,94331.00
2023-05-20T08:51:09.193Z,94329.00
2023-05-20T08:52:09.246Z,94327.00
2023-05-20T08:53:09.302Z,94331.00
2023-05-20T08:54:09.310Z,94327.00
2023-05-20T08:55:09.305Z,94327.00
2023-05-20T08:56:09.324Z,94325.00
2023-05-20T08:57:09.333Z,94325.00
2023-05-20T08:58:09.370Z,94325.00
2023-05-20T08:59:09.377Z,94321.00
2023-05-20T09:00:09.426Z,94321.00
2023-05-20T09:01:09.479Z,94318.00
2023-05-20T09:02:09.600Z,94321.00
2023-05-20T09:03:09.611Z,94318.00
2023-05-20T09:04:09.670Z,94312.00
2023-05-20T09:05:09.837Z,94314.00
2023-05-20T09:06:09.737Z,94316.00
2023-05-20T09:07:09.740Z,94312.00
2023-05-20T09:08:09.815Z,94312.00
2023-05-20T09:09:09.806Z,94308.00
2023-05-20T09:10:09.788Z,94308.00
2023-05-20T09:11:09.798Z,94308.00
2023-05-20T09:12:09.894Z,94308.00
2023-05-20T09:13:09.791Z,94308.00
2023-05-20T09:14:09.802Z,94310.00
2023-05-20T09:15:09.810Z,94308.00
2023-05-20T09:16:09.806Z,94308.00
2023-05-20T09:17:09.783Z,94308.00
2023-05-20T09:18:09.828Z,94306.00
2023-05-20T09:19:09.856Z,94308.00
2023-05-20T09:20:09.783Z,94308.00
2023-05-20T09:21:09.799Z,94306.00
2023-05-20T09:22:09.811Z,94308.00
2023-05-20T09:23:09.856Z,94308.00
2023-05-20T09:24:09.928Z,94306.00
2023-05-20T09:25:09.936Z,94306.00
2023-05-20T09:26:09.973Z,94306.00
2023-05-20T09:27:09.990Z,94304.00
2023-05-20T09:28:10.015Z,94302.00
2023-05-20T09:29:10.068Z,94302.00
2023-05-20T09:30:10.098Z,94300.00
2023-05-20T09:31:10.169Z,94302.00
2023-05-20T09:32:10.208Z,94298.00
2023-05-20T09:33:10.258Z,94298.00
2023-05-20T09:34:10.193Z,94298.00
2023-05-20T09:35:10.227Z,94298.00
2023-05-20T09:36:10.229Z,94298.00
2023-05-20T09:37:10.253Z,94292.00
2023-05-20T09:38:10.305Z,94290.00
2023-05-20T09:39:10.326Z,94288.00
2023-05-20T09:40:10.371Z,94286.00
2023-05-20T09:41:10.447Z,94284.00
2023-05-20T09:42:10.449Z,94286.00
2023-05-20T09:43:10.491Z,94288.00
2023-05-20T09:44:10.535Z,94284.00
2023-05-20T09:45:10.561Z,94288.00
2023-05-20T09:46:10.693Z,94286.00
2023-05-20T09:47:10.665Z,94288.00
2023-05-20T09:48:10.916Z,94282.00
2023-05-20T09:49:10.689Z,94276.00
2023-05-20T09:50:10.703Z,94276.00
2023-05-20T09:51:10.727Z,94276.00
2023-05-20T09:52:10.773Z,94274.00
2023-05-20T09:53:10.834Z,94270.00
2023-05-20T09:54:10.878Z,94270.00
2023-05-20T09:55:10.919Z,94267.00
2023-05-20T09:56:10.948Z,94270.00
2023-05-20T09:57:10.997Z,94265.00
2023-05-20T09:58:11.040Z,94257.00
2023-05-20T09:59:11.097Z,94253.00
2023-05-20T10:00:11.129Z,94249.00
2023-05-20T10:01:11.178Z,94249.00
2023-05-20T10:02:11.264Z,94245.00
2023-05-20T10:03:11.296Z,94243.00
2023-05-20T10:04:11.310Z,94245.00
2023-05-20T10:05:11.350Z,94243.00
2023-05-20T10:06:11.400Z,94239.00
2023-05-20T10:07:11.435Z,94237.00
2023-05-20T10:08:11.484Z,94235.00
2023-05-20T10:09:11.558Z,94231.00
2023-05-20T10:10:11.597Z,94229.00
2023-05-20T10:11:11.664Z,94229.00
2023-05-20T10:12:11.698Z,94227.00
2023-05-20T10:13:11.739Z,94223.00
2023-05-20T10:14:11.781Z,94225.00
2023-05-20T10:15:11.789Z,94222.00
2023-05-20T10:16:11.832Z,94222.00
2023-05-20T10:17:11.855Z,94218.00
2023-05-20T10:18:11.861Z,94216.00
2023-05-20T10:19:11.951Z,94214.00
2023-05-20T10:20:12.023Z,94210.00
2023-05-20T10:21:11.964Z,94210.00
2023-05-20T10:22:12.014Z,94210.00
2023-05-20T10:23:12.032Z,94212.00
2023-05-20T10:24:12.090Z,94210.00
2023-05-20T10:25:12.082Z,94208.00
2023-05-20T10:26:12.155Z,94208.00
2023-05-20T10:27:12.235Z,94210.00
2023-05-20T10:28:12.273Z,94204.00
2023-05-20T10:29:12.430Z,94200.00
2023-05-20T10:30:12.289Z,94194.00
2023-05-20T10:31:12.358Z,94194.00
2023-05-20T10:32:12.466Z,94196.00
2023-05-20T10:33:12.582Z,94198.00
2023-05-20T10:34:12.567Z,94196.00
2023-05-20T10:35:12.694Z,94190.00
2023-05-20T10:36:12.651Z,94198.00
2023-05-20T10:37:12.704Z,94194.00
2023-05-20T10:38:12.774Z,94192.00
2023-05-20T10:39:12.853Z,94192.00
2023-05-20T10:40:12.891Z,94186.00
2023-05-20T10:41:12.964Z,94182.00
2023-05-20T10:42:13.014Z,94180.00
2023-05-20T10:43:13.202Z,94178.00
2023-05-20T10:44:13.132Z,94176.00
2023-05-20T10:45:13.229Z,94176.00
2023-05-20T10:46:26.375Z,94176.00
2023-05-20T10:47:24.537Z,94176.00
2023-05-20T10:48:14.317Z,94173.00
2023-05-20T10:49:13.369Z,94173.00
2023-05-20T10:50:13.166Z,94171.00
2023-05-20T10:51:13.179Z,94171.00
2023-05-20T10:52:13.187Z,94171.00
2023-05-20T10:53:21.662Z,94173.00
2023-05-20T10:54:14.154Z,94171.00
2023-05-20T10:55:13.129Z,94173.00
2023-05-20T10:56:13.215Z,94171.00
2023-05-20T10:57:13.137Z,94173.00
2023-05-20T10:58:13.139Z,94171.00
2023-05-20T10:59:13.124Z,94167.00
2023-05-20T11:00:13.123Z,94167.00
2023-05-20T11:01:13.183Z,94171.00
2023-05-20T11:02:13.115Z,94169.00
2023-05-20T11:03:13.191Z,94171.00
2023-05-20T11:04:13.267Z,94171.00
2023-05-20T11:05:13.191Z,94169.00
2023-05-20T11:06:14.002Z,94167.00
2023-05-20T11:07:13.297Z,94165.00
2023-05-20T11:08:27.157Z,94163.00
2023-05-20T11:09:14.332Z,94169.00
2023-05-20T11:10:13.335Z,94167.00
2023-05-20T11:11:13.348Z,94167.00
2023-05-20T11:12:13.708Z,94167.00
2023-05-20T11:13:13.388Z,94161.00
2023-05-20T11:14:13.299Z,94167.00
2023-05-20T11:15:13.315Z,94167.00
2023-05-20T11:16:13.336Z,94165.00
2023-05-20T11:17:13.273Z,94165.00
2023-05-20T11:18:13.283Z,94165.00
2023-05-20T11:19:13.350Z,94163.00
2023-05-20T11:20:13.360Z,94163.00
2023-05-20T11:21:13.396Z,94165.00
2023-05-20T11:22:13.442Z,94161.00
2023-05-20T11:23:13.481Z,94159.00
2023-05-20T11:24:13.533Z,94159.00
2023-05-20T11:25:13.682Z,94163.00
2023-05-20T11:26:13.710Z,94159.00
2023-05-20T11:27:13.793Z,94159.00
2023-05-20T11:28:13.777Z,94155.00
2023-05-20T11:29:13.797Z,94161.00
2023-05-20T11:30:13.828Z,94159.00
2023-05-20T11:31:13.825Z,94159.00
2023-05-20T11:32:13.889Z,94159.00
2023-05-20T11:33:14.060Z,94155.00
2023-05-20T11:34:13.920Z,94153.00
2023-05-20T11:35:13.906Z,94153.00
2023-05-20T11:36:26.904Z,94153.00
2023-05-20T11:37:14.919Z,94151.00
2023-05-20T11:38:13.923Z,94151.00
2023-05-20T11:39:13.914Z,94155.00
2023-05-20T11:40:13.921Z,94161.00
2023-05-20T11:41:13.892Z,94159.00
2023-05-20T11:42:14.083Z,94157.00
2023-05-20T11:43:13.877Z,94159.00
2023-05-20T11:44:13.873Z,94163.00
2023-05-20T11:45:13.954Z,94161.00